sensor_id;sensor_type;location;lat;lon;timestamp;P1;durP1;ratioP1;P2;durP2;ratioP2
45077;SDS011;60508;42.622;25.416;2023-04-03T00:01:13;0.90;;;0.57;;
45077;SDS011;60508;42.622;25.416;2023-04-03T00:03:40;0.90;;;0.60;;
45077;SDS011;60508;42.622;25.416;2023-04-03T00:06:07;3.20;;;0.60;;
45077;SDS011;60508;42.622;25.416;2023-04-03T00:08:35;0.70;;;0.45;;
45077;SDS011;60508;42.622;25.416;2023-04-03T00:11:03;1.98;;;0.60;;
45077;SDS011;60508;42.622;25.416;2023-04-03T00:13:30;0.50;;;0.50;;
45077;SDS011;60508;42.622;25.416;2023-04-03T00:15:56;1.27;;;0.32;;
45077;SDS011;60508;42.622;25.416;2023-04-03T00:18:22;1.63;;;0.40;;
45077;SDS011;60508;42.622;25.416;2023-04-03T00:20:49;0.95;;;0.50;;
45077;SDS011;60508;42.622;25.416;2023-04-03T00:23:15;0.63;;;0.60;;
45077;SDS011;60508;42.622;25.416;2023-04-03T00:25:41;0.60;;;0.60;;
45077;SDS011;60508;42.622;25.416;2023-04-03T00:28:08;1.45;;;0.65;;
45077;SDS011;60508;42.622;25.416;2023-04-03T00:30:35;2.40;;;1.63;;
45077;SDS011;60508;42.622;25.416;2023-04-03T00:33:01;1.65;;;1.13;;
45077;SDS011;60508;42.622;25.416;2023-04-03T00:35:27;4.00;;;1.00;;
45077;SDS011;60508;42.622;25.416;2023-04-03T00:37:54;3.28;;;0.70;;
45077;SDS011;60508;42.622;25.416;2023-04-03T00:40:21;0.63;;;0.52;;
45077;SDS011;60508;42.622;25.416;2023-04-03T00:42:51;0.63;;;0.47;;
45077;SDS011;60508;42.622;25.416;2023-04-03T00:45:32;0.90;;;0.77;;
45077;SDS011;60508;42.622;25.416;2023-04-03T00:48:04;2.13;;;1.50;;
45077;SDS011;60508;42.622;25.416;2023-04-03T00:50:32;3.28;;;2.08;;
45077;SDS011;60508;42.622;25.416;2023-04-03T00:53:02;3.35;;;1.73;;
45077;SDS011;60508;42.622;25.416;2023-04-03T00:55:29;1.15;;;1.00;;
45077;SDS011;60508;42.622;25.416;2023-04-03T00:57:57;2.25;;;1.42;;
45077;SDS011;60508;42.622;25.416;2023-04-03T01:00:23;2.40;;;1.63;;
45077;SDS011;60508;42.622;25.416;2023-04-03T01:02:50;2.72;;;1.33;;
45077;SDS011;60508;42.622;25.416;2023-04-03T01:05:17;2.58;;;1.42;;
45077;SDS011;60508;42.622;25.416;2023-04-03T01:07:44;3.22;;;1.77;;
45077;SDS011;60508;42.622;25.416;2023-04-03T01:10:12;2.22;;;1.77;;
45077;SDS011;60508;42.622;25.416;2023-04-03T01:12:42;2.58;;;1.70;;
45077;SDS011;60508;42.622;25.416;2023-04-03T01:15:14;3.38;;;2.20;;
45077;SDS011;60508;42.622;25.416;2023-04-03T01:17:49;2.53;;;1.90;;
45077;SDS011;60508;42.622;25.416;2023-04-03T01:25:35;5.05;;;2.80;;
45077;SDS011;60508;42.622;25.416;2023-04-03T01:28:13;4.05;;;2.20;;
45077;SDS011;60508;42.622;25.416;2023-04-03T01:35:39;1.00;;;1.00;;
45077;SDS011;60508;42.622;25.416;2023-04-03T01:38:05;1.55;;;1.08;;
45077;SDS011;60508;42.622;25.416;2023-04-03T01:40:32;3.28;;;1.02;;
45077;SDS011;60508;42.622;25.416;2023-04-03T01:42:58;1.25;;;1.00;;
45077;SDS011;60508;42.622;25.416;2023-04-03T01:45:24;1.42;;;1.15;;
45077;SDS011;60508;42.622;25.416;2023-04-03T01:47:50;4.88;;;1.20;;
45077;SDS011;60508;42.622;25.416;2023-04-03T01:50:16;1.77;;;0.95;;
45077;SDS011;60508;42.622;25.416;2023-04-03T01:52:43;2.90;;;1.10;;
45077;SDS011;60508;42.622;25.416;2023-04-03T01:55:09;1.45;;;1.25;;
45077;SDS011;60508;42.622;25.416;2023-04-03T01:57:35;2.40;;;1.25;;
45077;SDS011;60508;42.622;25.416;2023-04-03T02:00:01;1.77;;;1.20;;
45077;SDS011;60508;42.622;25.416;2023-04-03T02:02:38;2.53;;;2.10;;
45077;SDS011;60508;42.622;25.416;2023-04-03T02:05:07;2.20;;;1.35;;
45077;SDS011;60508;42.622;25.416;2023-04-03T02:07:33;2.47;;;2.28;;
45077;SDS011;60508;42.622;25.416;2023-04-03T02:09:59;1.85;;;1.30;;
45077;SDS011;60508;42.622;25.416;2023-04-03T02:12:25;2.63;;;1.70;;
45077;SDS011;60508;42.622;25.416;2023-04-03T02:14:52;2.53;;;1.67;;
45077;SDS011;60508;42.622;25.416;2023-04-03T02:17:19;2.50;;;1.85;;
45077;SDS011;60508;42.622;25.416;2023-04-03T02:19:45;3.40;;;1.50;;
45077;SDS011;60508;42.622;25.416;2023-04-03T02:22:11;1.38;;;1.02;;
45077;SDS011;60508;42.622;25.416;2023-04-03T02:24:37;2.72;;;1.33;;
45077;SDS011;60508;42.622;25.416;2023-04-03T02:27:04;4.68;;;1.55;;
45077;SDS011;60508;42.622;25.416;2023-04-03T02:29:30;1.52;;;1.42;;
45077;SDS011;60508;42.622;25.416;2023-04-03T02:31:56;1.90;;;1.33;;
45077;SDS011;60508;42.622;25.416;2023-04-03T02:34:23;2.17;;;1.65;;
45077;SDS011;60508;42.622;25.416;2023-04-03T02:36:51;1.40;;;1.10;;
45077;SDS011;60508;42.622;25.416;2023-04-03T02:39:18;7.22;;;1.65;;
45077;SDS011;60508;42.622;25.416;2023-04-03T02:41:44;1.77;;;1.65;;
45077;SDS011;60508;42.622;25.416;2023-04-03T02:44:16;2.05;;;1.25;;
45077;SDS011;60508;42.622;25.416;2023-04-03T02:46:43;2.10;;;1.67;;
45077;SDS011;60508;42.622;25.416;2023-04-03T02:49:09;7.30;;;1.70;;
45077;SDS011;60508;42.622;25.416;2023-04-03T02:51:35;1.60;;;1.50;;
45077;SDS011;60508;42.622;25.416;2023-04-03T02:54:02;1.90;;;0.98;;
45077;SDS011;60508;42.622;25.416;2023-04-03T02:56:31;4.90;;;2.90;;
45077;SDS011;60508;42.622;25.416;2023-04-03T02:58:58;4.25;;;2.42;;
45077;SDS011;60508;42.622;25.416;2023-04-03T03:01:24;7.13;;;5.50;;
45077;SDS011;60508;42.622;25.416;2023-04-03T03:03:51;6.88;;;4.40;;
45077;SDS011;60508;42.622;25.416;2023-04-03T03:06:17;3.72;;;2.85;;
45077;SDS011;60508;42.622;25.416;2023-04-03T03:08:43;3.65;;;2.42;;
45077;SDS011;60508;42.622;25.416;2023-04-03T03:11:09;2.40;;;1.90;;
45077;SDS011;60508;42.622;25.416;2023-04-03T03:13:35;3.95;;;2.95;;
45077;SDS011;60508;42.622;25.416;2023-04-03T03:16:01;1.33;;;1.20;;
45077;SDS011;60508;42.622;25.416;2023-04-03T03:18:28;4.50;;;3.33;;
45077;SDS011;60508;42.622;25.416;2023-04-03T03:20:56;6.20;;;2.70;;
45077;SDS011;60508;42.622;25.416;2023-04-03T03:23:24;3.33;;;2.70;;
45077;SDS011;60508;42.622;25.416;2023-04-03T03:28:23;4.22;;;2.60;;
45077;SDS011;60508;42.622;25.416;2023-04-03T03:30:49;2.28;;;2.00;;
45077;SDS011;60508;42.622;25.416;2023-04-03T03:33:17;1.33;;;1.10;;
45077;SDS011;60508;42.622;25.416;2023-04-03T03:35:43;1.77;;;1.17;;
45077;SDS011;60508;42.622;25.416;2023-04-03T03:38:09;2.10;;;1.65;;
45077;SDS011;60508;42.622;25.416;2023-04-03T03:40:36;2.05;;;1.38;;
45077;SDS011;60508;42.622;25.416;2023-04-03T03:43:03;3.63;;;1.42;;
45077;SDS011;60508;42.622;25.416;2023-04-03T03:45:29;1.27;;;1.17;;
45077;SDS011;60508;42.622;25.416;2023-04-03T03:47:56;1.27;;;1.05;;
45077;SDS011;60508;42.622;25.416;2023-04-03T03:50:22;2.40;;;1.27;;
45077;SDS011;60508;42.622;25.416;2023-04-03T03:52:48;2.10;;;1.90;;
45077;SDS011;60508;42.622;25.416;2023-04-03T03:55:15;3.75;;;2.63;;
45077;SDS011;60508;42.622;25.416;2023-04-03T03:57:41;4.07;;;3.08;;
45077;SDS011;60508;42.622;25.416;2023-04-03T04:00:07;4.32;;;1.48;;
45077;SDS011;60508;42.622;25.416;2023-04-03T04:02:40;4.45;;;1.25;;
45077;SDS011;60508;42.622;25.416;2023-04-03T04:05:09;1.55;;;1.45;;
45077;SDS011;60508;42.622;25.416;2023-04-03T04:07:36;1.45;;;1.35;;
45077;SDS011;60508;42.622;25.416;2023-04-03T04:10:03;1.70;;;1.30;;
45077;SDS011;60508;42.622;25.416;2023-04-03T04:12:29;3.03;;;2.60;;
45077;SDS011;60508;42.622;25.416;2023-04-03T04:14:56;5.72;;;2.70;;
45077;SDS011;60508;42.622;25.416;2023-04-03T04:17:22;3.13;;;1.70;;
45077;SDS011;60508;42.622;25.416;2023-04-03T04:19:48;1.70;;;1.25;;
45077;SDS011;60508;42.622;25.416;2023-04-03T04:22:15;2.47;;;1.60;;
45077;SDS011;60508;42.622;25.416;2023-04-03T04:24:42;2.55;;;2.15;;
45077;SDS011;60508;42.622;25.416;2023-04-03T04:27:09;1.60;;;1.50;;
45077;SDS011;60508;42.622;25.416;2023-04-03T04:29:35;2.60;;;1.95;;
45077;SDS011;60508;42.622;25.416;2023-04-03T04:32:05;8.63;;;4.05;;
45077;SDS011;60508;42.622;25.416;2023-04-03T04:34:30;11.70;;;3.13;;
45077;SDS011;60508;42.622;25.416;2023-04-03T04:36:58;4.15;;;1.92;;
45077;SDS011;60508;42.622;25.416;2023-04-03T04:39:26;4.22;;;2.30;;
45077;SDS011;60508;42.622;25.416;2023-04-03T04:41:54;4.43;;;2.38;;
45077;SDS011;60508;42.622;25.416;2023-04-03T04:44:21;8.35;;;2.58;;
45077;SDS011;60508;42.622;25.416;2023-04-03T04:46:47;13.18;;;3.03;;
45077;SDS011;60508;42.622;25.416;2023-04-03T04:49:13;3.95;;;3.00;;
45077;SDS011;60508;42.622;25.416;2023-04-03T04:51:39;7.07;;;2.80;;
45077;SDS011;60508;42.622;25.416;2023-04-03T04:54:05;3.58;;;2.38;;
45077;SDS011;60508;42.622;25.416;2023-04-03T04:56:31;4.28;;;2.58;;
45077;SDS011;60508;42.622;25.416;2023-04-03T04:58:58;4.80;;;2.17;;
45077;SDS011;60508;42.622;25.416;2023-04-03T05:01:25;3.97;;;2.60;;
45077;SDS011;60508;42.622;25.416;2023-04-03T05:03:58;3.75;;;3.03;;
45077;SDS011;60508;42.622;25.416;2023-04-03T05:06:25;5.80;;;2.40;;
45077;SDS011;60508;42.622;25.416;2023-04-03T05:08:54;2.47;;;2.27;;
45077;SDS011;60508;42.622;25.416;2023-04-03T05:11:21;2.67;;;1.92;;
45077;SDS011;60508;42.622;25.416;2023-04-03T05:16:16;1.38;;;1.23;;
45077;SDS011;60508;42.622;25.416;2023-04-03T05:18:42;1.65;;;1.40;;
45077;SDS011;60508;42.622;25.416;2023-04-03T05:21:16;2.83;;;1.50;;
45077;SDS011;60508;42.622;25.416;2023-04-03T05:23:45;2.67;;;2.00;;
45077;SDS011;60508;42.622;25.416;2023-04-03T05:26:12;2.45;;;2.25;;
45077;SDS011;60508;42.622;25.416;2023-04-03T05:28:38;2.00;;;1.55;;
45077;SDS011;60508;42.622;25.416;2023-04-03T05:31:06;2.10;;;1.90;;
45077;SDS011;60508;42.622;25.416;2023-04-03T05:33:35;4.97;;;1.80;;
45077;SDS011;60508;42.622;25.416;2023-04-03T05:36:05;2.00;;;1.67;;
45077;SDS011;60508;42.622;25.416;2023-04-03T05:38:38;2.28;;;1.50;;
45077;SDS011;60508;42.622;25.416;2023-04-03T05:41:06;1.15;;;1.00;;
45077;SDS011;60508;42.622;25.416;2023-04-03T05:43:32;3.78;;;0.95;;
45077;SDS011;60508;42.622;25.416;2023-04-03T05:46:00;3.10;;;1.63;;
45077;SDS011;60508;42.622;25.416;2023-04-03T05:48:31;6.03;;;1.52;;
45077;SDS011;60508;42.622;25.416;2023-04-03T05:50:58;1.38;;;1.05;;
45077;SDS011;60508;42.622;25.416;2023-04-03T05:53:27;1.80;;;1.25;;
45077;SDS011;60508;42.622;25.416;2023-04-03T05:55:58;6.65;;;1.45;;
45077;SDS011;60508;42.622;25.416;2023-04-03T05:58:24;2.35;;;1.10;;
45077;SDS011;60508;42.622;25.416;2023-04-03T06:00:52;2.40;;;1.30;;
45077;SDS011;60508;42.622;25.416;2023-04-03T06:03:19;4.13;;;0.90;;
45077;SDS011;60508;42.622;25.416;2023-04-03T06:05:46;3.17;;;1.23;;
45077;SDS011;60508;42.622;25.416;2023-04-03T06:08:12;3.22;;;1.20;;
45077;SDS011;60508;42.622;25.416;2023-04-03T06:10:38;3.15;;;0.77;;
45077;SDS011;60508;42.622;25.416;2023-04-03T06:13:06;2.17;;;1.48;;
45077;SDS011;60508;42.622;25.416;2023-04-03T06:15:32;1.85;;;1.38;;
45077;SDS011;60508;42.622;25.416;2023-04-03T06:18:00;3.78;;;1.80;;
45077;SDS011;60508;42.622;25.416;2023-04-03T06:20:27;4.03;;;2.28;;
45077;SDS011;60508;42.622;25.416;2023-04-03T06:22:54;5.10;;;2.30;;
45077;SDS011;60508;42.622;25.416;2023-04-03T06:25:21;9.25;;;2.17;;
45077;SDS011;60508;42.622;25.416;2023-04-03T06:27:47;4.68;;;2.17;;
45077;SDS011;60508;42.622;25.416;2023-04-03T06:30:13;7.25;;;3.10;;
45077;SDS011;60508;42.622;25.416;2023-04-03T06:32:39;3.30;;;2.28;;
45077;SDS011;60508;42.622;25.416;2023-04-03T06:35:06;3.60;;;2.55;;
45077;SDS011;60508;42.622;25.416;2023-04-03T06:37:36;4.22;;;2.13;;
45077;SDS011;60508;42.622;25.416;2023-04-03T06:40:03;4.10;;;2.60;;
45077;SDS011;60508;42.622;25.416;2023-04-03T06:42:31;5.55;;;2.33;;
45077;SDS011;60508;42.622;25.416;2023-04-03T06:45:05;6.15;;;1.98;;
45077;SDS011;60508;42.622;25.416;2023-04-03T06:47:32;2.80;;;1.80;;
45077;SDS011;60508;42.622;25.416;2023-04-03T06:49:58;4.35;;;2.75;;
45077;SDS011;60508;42.622;25.416;2023-04-03T06:52:25;4.72;;;2.95;;
45077;SDS011;60508;42.622;25.416;2023-04-03T06:54:51;3.08;;;2.72;;
45077;SDS011;60508;42.622;25.416;2023-04-03T06:57:22;6.88;;;2.33;;
45077;SDS011;60508;42.622;25.416;2023-04-03T06:59:50;7.53;;;2.90;;
45077;SDS011;60508;42.622;25.416;2023-04-03T07:02:17;3.70;;;2.65;;
45077;SDS011;60508;42.622;25.416;2023-04-03T07:04:42;7.20;;;2.13;;
45077;SDS011;60508;42.622;25.416;2023-04-03T07:07:10;4.72;;;2.38;;
45077;SDS011;60508;42.622;25.416;2023-04-03T07:09:37;8.40;;;3.03;;
45077;SDS011;60508;42.622;25.416;2023-04-03T07:12:03;2.95;;;2.00;;
45077;SDS011;60508;42.622;25.416;2023-04-03T07:14:29;5.03;;;2.17;;
45077;SDS011;60508;42.622;25.416;2023-04-03T07:16:55;3.30;;;2.50;;
45077;SDS011;60508;42.622;25.416;2023-04-03T07:19:22;15.73;;;2.50;;
45077;SDS011;60508;42.622;25.416;2023-04-03T07:21:53;2.97;;;2.20;;
45077;SDS011;60508;42.622;25.416;2023-04-03T07:24:19;5.20;;;2.60;;
45077;SDS011;60508;42.622;25.416;2023-04-03T07:26:51;5.38;;;2.47;;
45077;SDS011;60508;42.622;25.416;2023-04-03T07:29:18;4.85;;;2.83;;
45077;SDS011;60508;42.622;25.416;2023-04-03T07:31:47;5.28;;;2.95;;
45077;SDS011;60508;42.622;25.416;2023-04-03T07:34:13;9.95;;;3.05;;
45077;SDS011;60508;42.622;25.416;2023-04-03T07:36:40;4.13;;;2.63;;
45077;SDS011;60508;42.622;25.416;2023-04-03T07:39:06;10.40;;;3.65;;
45077;SDS011;60508;42.622;25.416;2023-04-03T07:41:33;10.55;;;4.95;;
45077;SDS011;60508;42.622;25.416;2023-04-03T07:43:59;9.02;;;4.63;;
45077;SDS011;60508;42.622;25.416;2023-04-03T07:46:27;10.30;;;5.53;;
45077;SDS011;60508;42.622;25.416;2023-04-03T07:48:53;11.20;;;5.68;;
45077;SDS011;60508;42.622;25.416;2023-04-03T07:51:19;13.00;;;5.75;;
45077;SDS011;60508;42.622;25.416;2023-04-03T07:53:45;9.77;;;5.90;;
45077;SDS011;60508;42.622;25.416;2023-04-03T07:56:11;10.13;;;4.05;;
45077;SDS011;60508;42.622;25.416;2023-04-03T07:58:38;10.10;;;4.15;;
45077;SDS011;60508;42.622;25.416;2023-04-03T08:01:05;7.43;;;2.92;;
45077;SDS011;60508;42.622;25.416;2023-04-03T08:03:32;6.82;;;3.60;;
45077;SDS011;60508;42.622;25.416;2023-04-03T08:06:06;19.52;;;6.57;;
45077;SDS011;60508;42.622;25.416;2023-04-03T08:08:33;17.35;;;6.63;;
45077;SDS011;60508;42.622;25.416;2023-04-03T08:11:01;32.90;;;9.02;;
45077;SDS011;60508;42.622;25.416;2023-04-03T08:13:29;36.67;;;11.98;;
45077;SDS011;60508;42.622;25.416;2023-04-03T08:15:56;27.13;;;9.40;;
45077;SDS011;60508;42.622;25.416;2023-04-03T08:18:24;36.85;;;12.38;;
45077;SDS011;60508;42.622;25.416;2023-04-03T08:20:52;18.58;;;4.68;;
45077;SDS011;60508;42.622;25.416;2023-04-03T08:23:19;44.83;;;15.57;;
45077;SDS011;60508;42.622;25.416;2023-04-03T08:25:45;6.03;;;3.10;;
45077;SDS011;60508;42.622;25.416;2023-04-03T08:28:11;5.97;;;4.30;;
45077;SDS011;60508;42.622;25.416;2023-04-03T08:30:39;17.98;;;9.10;;
45077;SDS011;60508;42.622;25.416;2023-04-03T08:33:08;9.27;;;4.93;;
45077;SDS011;60508;42.622;25.416;2023-04-03T08:35:38;7.15;;;4.28;;
45077;SDS011;60508;42.622;25.416;2023-04-03T08:38:07;4.68;;;2.15;;
45077;SDS011;60508;42.622;25.416;2023-04-03T08:40:35;7.00;;;4.03;;
45077;SDS011;60508;42.622;25.416;2023-04-03T08:45:44;6.95;;;3.53;;
45077;SDS011;60508;42.622;25.416;2023-04-03T08:48:17;8.82;;;4.53;;
45077;SDS011;60508;42.622;25.416;2023-04-03T08:50:47;6.13;;;3.20;;
45077;SDS011;60508;42.622;25.416;2023-04-03T08:53:21;2.83;;;1.33;;
45077;SDS011;60508;42.622;25.416;2023-04-03T08:55:58;3.17;;;1.85;;
45077;SDS011;60508;42.622;25.416;2023-04-03T08:58:29;3.65;;;1.58;;
45077;SDS011;60508;42.622;25.416;2023-04-03T09:01:12;3.05;;;1.83;;
45077;SDS011;60508;42.622;25.416;2023-04-03T09:03:45;1.65;;;1.00;;
45077;SDS011;60508;42.622;25.416;2023-04-03T09:06:15;6.00;;;2.50;;
45077;SDS011;60508;42.622;25.416;2023-04-03T09:11:47;3.05;;;1.55;;
45077;SDS011;60508;42.622;25.416;2023-04-03T09:14:36;1.75;;;1.35;;
45077;SDS011;60508;42.622;25.416;2023-04-03T09:20:17;1.10;;;0.93;;
45077;SDS011;60508;42.622;25.416;2023-04-03T09:22:51;0.70;;;0.47;;
45077;SDS011;60508;42.622;25.416;2023-04-03T09:25:23;3.20;;;1.42;;
45077;SDS011;60508;42.622;25.416;2023-04-03T09:27:52;0.98;;;0.65;;
45077;SDS011;60508;42.622;25.416;2023-04-03T09:30:20;0.80;;;0.80;;
45077;SDS011;60508;42.622;25.416;2023-04-03T09:32:50;1.05;;;0.70;;
45077;SDS011;60508;42.622;25.416;2023-04-03T09:41:03;1.50;;;1.25;;
45077;SDS011;60508;42.622;25.416;2023-04-03T09:43:33;3.28;;;1.30;;
45077;SDS011;60508;42.622;25.416;2023-04-03T09:49:04;0.93;;;0.80;;
45077;SDS011;60508;42.622;25.416;2023-04-03T09:51:32;1.35;;;0.95;;
45077;SDS011;60508;42.622;25.416;2023-04-03T09:53:59;2.55;;;1.20;;
45077;SDS011;60508;42.622;25.416;2023-04-03T09:56:28;2.20;;;1.35;;
45077;SDS011;60508;42.622;25.416;2023-04-03T10:04:08;1.48;;;1.38;;
45077;SDS011;60508;42.622;25.416;2023-04-03T10:06:37;0.80;;;0.75;;
45077;SDS011;60508;42.622;25.416;2023-04-03T10:09:20;2.40;;;1.00;;
45077;SDS011;60508;42.622;25.416;2023-04-03T10:14:36;1.77;;;0.88;;
45077;SDS011;60508;42.622;25.416;2023-04-03T10:19:50;0.85;;;0.70;;
45077;SDS011;60508;42.622;25.416;2023-04-03T10:38:14;1.75;;;0.60;;
45077;SDS011;60508;42.622;25.416;2023-04-03T10:40:50;1.48;;;1.08;;
45077;SDS011;60508;42.622;25.416;2023-04-03T10:43:27;1.27;;;0.85;;
45077;SDS011;60508;42.622;25.416;2023-04-03T10:48:37;1.80;;;1.13;;
45077;SDS011;60508;42.622;25.416;2023-04-03T10:51:26;3.70;;;0.70;;
45077;SDS011;60508;42.622;25.416;2023-04-03T10:56:50;1.58;;;0.80;;
45077;SDS011;60508;42.622;25.416;2023-04-03T11:01:55;2.63;;;0.60;;
45077;SDS011;60508;42.622;25.416;2023-04-03T11:04:26;3.08;;;1.42;;
45077;SDS011;60508;42.622;25.416;2023-04-03T11:07:03;1.15;;;0.70;;
45077;SDS011;60508;42.622;25.416;2023-04-03T11:09:36;1.40;;;0.80;;
45077;SDS011;60508;42.622;25.416;2023-04-03T11:12:11;0.77;;;0.60;;
45077;SDS011;60508;42.622;25.416;2023-04-03T11:14:41;1.63;;;0.63;;
45077;SDS011;60508;42.622;25.416;2023-04-03T11:19:47;1.30;;;1.10;;
45077;SDS011;60508;42.622;25.416;2023-04-03T11:22:45;0.95;;;0.70;;
45077;SDS011;60508;42.622;25.416;2023-04-03T11:25:20;0.98;;;0.88;;
45077;SDS011;60508;42.622;25.416;2023-04-03T11:27:58;1.15;;;0.98;;
45077;SDS011;60508;42.622;25.416;2023-04-03T11:35:51;1.48;;;1.08;;
45077;SDS011;60508;42.622;25.416;2023-04-03T11:38:26;5.68;;;0.80;;
45077;SDS011;60508;42.622;25.416;2023-04-03T11:40:56;2.92;;;1.25;;
45077;SDS011;60508;42.622;25.416;2023-04-03T11:43:28;1.48;;;1.23;;
45077;SDS011;60508;42.622;25.416;2023-04-03T11:46:00;1.63;;;1.30;;
45077;SDS011;60508;42.622;25.416;2023-04-03T11:50:55;2.85;;;1.52;;
45077;SDS011;60508;42.622;25.416;2023-04-03T12:04:21;1.52;;;0.95;;
45077;SDS011;60508;42.622;25.416;2023-04-03T12:06:59;6.65;;;2.17;;
45077;SDS011;60508;42.622;25.416;2023-04-03T12:14:53;5.03;;;2.22;;
45077;SDS011;60508;42.622;25.416;2023-04-03T12:17:26;9.23;;;4.22;;
45077;SDS011;60508;42.622;25.416;2023-04-03T12:19:53;6.43;;;3.25;;
45077;SDS011;60508;42.622;25.416;2023-04-03T12:22:20;7.45;;;2.42;;
45077;SDS011;60508;42.622;25.416;2023-04-03T12:24:51;5.93;;;2.92;;
45077;SDS011;60508;42.622;25.416;2023-04-03T12:27:26;3.10;;;2.20;;
45077;SDS011;60508;42.622;25.416;2023-04-03T12:30:03;4.75;;;2.53;;
45077;SDS011;60508;42.622;25.416;2023-04-03T12:41:04;2.60;;;1.60;;
45077;SDS011;60508;42.622;25.416;2023-04-03T12:46:49;9.68;;;2.80;;
45077;SDS011;60508;42.622;25.416;2023-04-03T12:51:59;4.03;;;2.10;;
45077;SDS011;60508;42.622;25.416;2023-04-03T12:54:34;2.33;;;1.70;;
45077;SDS011;60508;42.622;25.416;2023-04-03T12:57:09;3.42;;;1.83;;
45077;SDS011;60508;42.622;25.416;2023-04-03T12:59:43;4.72;;;2.30;;
45077;SDS011;60508;42.622;25.416;2023-04-03T13:02:26;7.43;;;2.47;;
45077;SDS011;60508;42.622;25.416;2023-04-03T13:04:58;5.85;;;2.60;;
45077;SDS011;60508;42.622;25.416;2023-04-03T13:07:34;4.63;;;2.72;;
45077;SDS011;60508;42.622;25.416;2023-04-03T13:12:35;6.05;;;3.50;;
45077;SDS011;60508;42.622;25.416;2023-04-03T13:15:16;5.55;;;3.55;;
45077;SDS011;60508;42.622;25.416;2023-04-03T13:17:44;6.55;;;3.20;;
45077;SDS011;60508;42.622;25.416;2023-04-03T13:20:12;7.90;;;2.60;;
45077;SDS011;60508;42.622;25.416;2023-04-03T13:22:45;2.65;;;1.95;;
45077;SDS011;60508;42.622;25.416;2023-04-03T13:25:17;5.03;;;2.35;;
45077;SDS011;60508;42.622;25.416;2023-04-03T13:27:46;5.38;;;3.10;;
45077;SDS011;60508;42.622;25.416;2023-04-03T13:33:01;4.15;;;2.78;;
45077;SDS011;60508;42.622;25.416;2023-04-03T13:35:39;4.18;;;2.80;;
45077;SDS011;60508;42.622;25.416;2023-04-03T13:38:21;4.57;;;2.45;;
45077;SDS011;60508;42.622;25.416;2023-04-03T13:40:50;6.20;;;3.47;;
45077;SDS011;60508;42.622;25.416;2023-04-03T13:43:23;8.88;;;4.28;;
45077;SDS011;60508;42.622;25.416;2023-04-03T13:46:33;6.72;;;2.50;;
45077;SDS011;60508;42.622;25.416;2023-04-03T13:53:40;10.40;;;3.97;;
45077;SDS011;60508;42.622;25.416;2023-04-03T13:56:23;8.77;;;3.22;;
45077;SDS011;60508;42.622;25.416;2023-04-03T13:59:02;5.53;;;3.28;;
45077;SDS011;60508;42.622;25.416;2023-04-03T14:01:33;5.43;;;3.50;;
45077;SDS011;60508;42.622;25.416;2023-04-03T14:04:13;6.63;;;2.80;;
45077;SDS011;60508;42.622;25.416;2023-04-03T14:06:51;5.20;;;3.00;;
45077;SDS011;60508;42.622;25.416;2023-04-03T14:09:18;6.28;;;3.72;;
45077;SDS011;60508;42.622;25.416;2023-04-03T14:11:47;13.90;;;5.15;;
45077;SDS011;60508;42.622;25.416;2023-04-03T14:14:29;11.68;;;5.10;;
45077;SDS011;60508;42.622;25.416;2023-04-03T14:16:58;11.18;;;6.45;;
45077;SDS011;60508;42.622;25.416;2023-04-03T14:19:28;8.52;;;4.53;;
45077;SDS011;60508;42.622;25.416;2023-04-03T14:21:56;7.63;;;4.10;;
45077;SDS011;60508;42.622;25.416;2023-04-03T14:24:22;10.68;;;4.65;;
45077;SDS011;60508;42.622;25.416;2023-04-03T14:26:49;10.70;;;5.72;;
45077;SDS011;60508;42.622;25.416;2023-04-03T14:29:17;7.20;;;4.10;;
45077;SDS011;60508;42.622;25.416;2023-04-03T14:31:45;10.15;;;4.05;;
45077;SDS011;60508;42.622;25.416;2023-04-03T14:34:12;5.43;;;3.58;;
45077;SDS011;60508;42.622;25.416;2023-04-03T14:36:40;4.28;;;3.88;;
45077;SDS011;60508;42.622;25.416;2023-04-03T14:39:07;5.85;;;3.30;;
45077;SDS011;60508;42.622;25.416;2023-04-03T14:41:36;7.50;;;4.10;;
45077;SDS011;60508;42.622;25.416;2023-04-03T14:44:02;5.47;;;4.55;;
45077;SDS011;60508;42.622;25.416;2023-04-03T14:46:32;3.45;;;2.70;;
45077;SDS011;60508;42.622;25.416;2023-04-03T14:49:02;5.85;;;2.58;;
45077;SDS011;60508;42.622;25.416;2023-04-03T14:51:33;8.80;;;3.20;;
45077;SDS011;60508;42.622;25.416;2023-04-03T14:54:00;3.00;;;2.28;;
45077;SDS011;60508;42.622;25.416;2023-04-03T14:56:28;4.15;;;2.05;;
45077;SDS011;60508;42.622;25.416;2023-04-03T14:58:59;3.42;;;2.72;;
45077;SDS011;60508;42.622;25.416;2023-04-03T15:01:27;2.97;;;2.28;;
45077;SDS011;60508;42.622;25.416;2023-04-03T15:03:53;3.50;;;2.75;;
45077;SDS011;60508;42.622;25.416;2023-04-03T15:06:20;3.80;;;3.03;;
45077;SDS011;60508;42.622;25.416;2023-04-03T15:08:46;20.10;;;13.32;;
45077;SDS011;60508;42.622;25.416;2023-04-03T15:11:13;26.17;;;17.75;;
45077;SDS011;60508;42.622;25.416;2023-04-03T15:13:40;11.45;;;6.63;;
45077;SDS011;60508;42.622;25.416;2023-04-03T15:16:12;7.43;;;4.80;;
45077;SDS011;60508;42.622;25.416;2023-04-03T15:18:41;3.50;;;3.20;;
45077;SDS011;60508;42.622;25.416;2023-04-03T15:21:07;5.38;;;3.20;;
45077;SDS011;60508;42.622;25.416;2023-04-03T15:23:33;5.22;;;3.20;;
45077;SDS011;60508;42.622;25.416;2023-04-03T15:25:59;2.58;;;2.38;;
45077;SDS011;60508;42.622;25.416;2023-04-03T15:28:43;12.05;;;3.90;;
45077;SDS011;60508;42.622;25.416;2023-04-03T15:31:12;5.38;;;2.28;;
45077;SDS011;60508;42.622;25.416;2023-04-03T15:33:39;7.72;;;4.50;;
45077;SDS011;60508;42.622;25.416;2023-04-03T15:36:07;13.52;;;7.95;;
45077;SDS011;60508;42.622;25.416;2023-04-03T15:38:33;6.43;;;3.75;;
45077;SDS011;60508;42.622;25.416;2023-04-03T15:41:00;19.58;;;9.82;;
45077;SDS011;60508;42.622;25.416;2023-04-03T15:43:27;20.85;;;10.40;;
45077;SDS011;60508;42.622;25.416;2023-04-03T15:45:55;9.95;;;6.07;;
45077;SDS011;60508;42.622;25.416;2023-04-03T15:48:24;4.88;;;1.92;;
45077;SDS011;60508;42.622;25.416;2023-04-03T15:50:50;4.97;;;2.33;;
45077;SDS011;60508;42.622;25.416;2023-04-03T15:53:16;6.60;;;3.72;;
45077;SDS011;60508;42.622;25.416;2023-04-03T15:55:42;4.20;;;3.22;;
45077;SDS011;60508;42.622;25.416;2023-04-03T15:58:09;3.28;;;2.75;;
45077;SDS011;60508;42.622;25.416;2023-04-03T16:00:36;2.70;;;2.05;;
45077;SDS011;60508;42.622;25.416;2023-04-03T16:03:05;2.50;;;1.90;;
45077;SDS011;60508;42.622;25.416;2023-04-03T16:05:34;9.80;;;5.50;;
45077;SDS011;60508;42.622;25.416;2023-04-03T16:08:02;8.55;;;5.55;;
45077;SDS011;60508;42.622;25.416;2023-04-03T16:10:28;3.85;;;2.40;;
45077;SDS011;60508;42.622;25.416;2023-04-03T16:12:54;14.65;;;7.43;;
45077;SDS011;60508;42.622;25.416;2023-04-03T16:15:20;7.22;;;3.25;;
45077;SDS011;60508;42.622;25.416;2023-04-03T16:17:46;6.70;;;4.00;;
45077;SDS011;60508;42.622;25.416;2023-04-03T16:20:14;6.72;;;3.67;;
45077;SDS011;60508;42.622;25.416;2023-04-03T16:22:41;7.07;;;4.20;;
45077;SDS011;60508;42.622;25.416;2023-04-03T16:25:08;5.00;;;3.42;;
45077;SDS011;60508;42.622;25.416;2023-04-03T16:27:35;3.33;;;2.00;;
45077;SDS011;60508;42.622;25.416;2023-04-03T16:30:01;2.33;;;1.55;;
45077;SDS011;60508;42.622;25.416;2023-04-03T16:32:29;2.20;;;1.65;;
45077;SDS011;60508;42.622;25.416;2023-04-03T16:34:58;7.88;;;1.80;;
45077;SDS011;60508;42.622;25.416;2023-04-03T16:37:24;2.88;;;2.17;;
45077;SDS011;60508;42.622;25.416;2023-04-03T16:39:51;4.30;;;3.22;;
45077;SDS011;60508;42.622;25.416;2023-04-03T16:42:17;2.55;;;2.35;;